sensor_id;sensor_type;location;lat;lon;timestamp;P1;durP1;ratioP1;P2;durP2;ratioP2
45039;SDS011;30778;53.574;7.770;2023-07-24T00:01:48;4.95;;;2.90;;
45039;SDS011;30778;53.574;7.770;2023-07-24T00:04:54;5.85;;;2.33;;
45039;SDS011;30778;53.574;7.770;2023-07-24T00:07:54;6.03;;;3.42;;
45039;SDS011;30778;53.574;7.770;2023-07-24T00:10:35;6.43;;;3.20;;
45039;SDS011;30778;53.574;7.770;2023-07-24T00:13:26;4.97;;;2.70;;
45039;SDS011;30778;53.574;7.770;2023-07-24T00:16:35;5.65;;;3.17;;
45039;SDS011;30778;53.574;7.770;2023-07-24T00:19:29;7.82;;;3.65;;
45039;SDS011;30778;53.574;7.770;2023-07-24T00:22:00;4.63;;;3.20;;
45039;SDS011;30778;53.574;7.770;2023-07-24T00:24:57;7.63;;;3.67;;
45039;SDS011;30778;53.574;7.770;2023-07-24T00:27:38;8.43;;;4.00;;
45039;SDS011;30778;53.574;7.770;2023-07-24T00:30:22;6.15;;;3.22;;
45039;SDS011;30778;53.574;7.770;2023-07-24T00:33:19;7.25;;;3.17;;
45039;SDS011;30778;53.574;7.770;2023-07-24T00:35:58;7.60;;;3.20;;
45039;SDS011;30778;53.574;7.770;2023-07-24T00:42:07;5.28;;;3.20;;
45039;SDS011;30778;53.574;7.770;2023-07-24T00:47:51;6.25;;;3.53;;
45039;SDS011;30778;53.574;7.770;2023-07-24T00:50:32;7.03;;;4.25;;
45039;SDS011;30778;53.574;7.770;2023-07-24T00:53:12;7.45;;;3.10;;
45039;SDS011;30778;53.574;7.770;2023-07-24T00:55:50;7.90;;;3.22;;
45039;SDS011;30778;53.574;7.770;2023-07-24T01:02:00;12.18;;;4.10;;
45039;SDS011;30778;53.574;7.770;2023-07-24T01:05:03;6.18;;;3.55;;
45039;SDS011;30778;53.574;7.770;2023-07-24T01:07:40;6.72;;;3.00;;
45039;SDS011;30778;53.574;7.770;2023-07-24T01:10:06;7.22;;;3.60;;
45039;SDS011;30778;53.574;7.770;2023-07-24T01:13:05;5.22;;;3.47;;
45039;SDS011;30778;53.574;7.770;2023-07-24T01:16:14;11.80;;;4.35;;
45039;SDS011;30778;53.574;7.770;2023-07-24T01:19:26;6.47;;;3.47;;
45039;SDS011;30778;53.574;7.770;2023-07-24T01:28:35;4.32;;;3.17;;
45039;SDS011;30778;53.574;7.770;2023-07-24T01:31:20;8.20;;;3.63;;
45039;SDS011;30778;53.574;7.770;2023-07-24T01:34:23;6.32;;;3.22;;
45039;SDS011;30778;53.574;7.770;2023-07-24T01:37:14;6.70;;;3.65;;
45039;SDS011;30778;53.574;7.770;2023-07-24T01:40:04;4.93;;;2.67;;
45039;SDS011;30778;53.574;7.770;2023-07-24T01:42:57;7.40;;;3.80;;
45039;SDS011;30778;53.574;7.770;2023-07-24T01:45:40;6.45;;;3.38;;
45039;SDS011;30778;53.574;7.770;2023-07-24T01:48:42;7.10;;;3.30;;
45039;SDS011;30778;53.574;7.770;2023-07-24T01:51:49;6.10;;;3.20;;
45039;SDS011;30778;53.574;7.770;2023-07-24T01:54:23;12.47;;;4.23;;
45039;SDS011;30778;53.574;7.770;2023-07-24T01:57:29;7.57;;;3.47;;
45039;SDS011;30778;53.574;7.770;2023-07-24T02:00:04;7.05;;;3.70;;
45039;SDS011;30778;53.574;7.770;2023-07-24T02:02:41;5.75;;;3.65;;
45039;SDS011;30778;53.574;7.770;2023-07-24T02:05:21;6.72;;;3.55;;
45039;SDS011;30778;53.574;7.770;2023-07-24T02:08:23;6.07;;;3.83;;
45039;SDS011;30778;53.574;7.770;2023-07-24T02:11:27;7.28;;;2.65;;
45039;SDS011;30778;53.574;7.770;2023-07-24T02:14:24;7.53;;;3.25;;
45039;SDS011;30778;53.574;7.770;2023-07-24T02:17:23;8.90;;;3.85;;
45039;SDS011;30778;53.574;7.770;2023-07-24T02:20:09;9.45;;;4.35;;
45039;SDS011;30778;53.574;7.770;2023-07-24T02:23:08;9.02;;;3.47;;
45039;SDS011;30778;53.574;7.770;2023-07-24T02:25:54;8.20;;;4.07;;
45039;SDS011;30778;53.574;7.770;2023-07-24T02:31:26;9.88;;;3.70;;
45039;SDS011;30778;53.574;7.770;2023-07-24T02:33:52;5.70;;;4.00;;
45039;SDS011;30778;53.574;7.770;2023-07-24T02:36:17;9.98;;;4.43;;
45039;SDS011;30778;53.574;7.770;2023-07-24T02:38:43;8.82;;;4.93;;
45039;SDS011;30778;53.574;7.770;2023-07-24T02:41:08;8.18;;;4.00;;
45039;SDS011;30778;53.574;7.770;2023-07-24T02:43:36;10.35;;;4.75;;
45039;SDS011;30778;53.574;7.770;2023-07-24T02:46:02;9.85;;;5.07;;
45039;SDS011;30778;53.574;7.770;2023-07-24T02:48:28;10.68;;;4.32;;
45039;SDS011;30778;53.574;7.770;2023-07-24T02:50:54;11.20;;;4.55;;
45039;SDS011;30778;53.574;7.770;2023-07-24T02:53:20;13.00;;;5.38;;
45039;SDS011;30778;53.574;7.770;2023-07-24T02:55:45;8.80;;;4.50;;
45039;SDS011;30778;53.574;7.770;2023-07-24T02:58:11;9.68;;;5.07;;
45039;SDS011;30778;53.574;7.770;2023-07-24T03:00:38;10.68;;;4.88;;
45039;SDS011;30778;53.574;7.770;2023-07-24T03:03:03;12.18;;;5.82;;
45039;SDS011;30778;53.574;7.770;2023-07-24T03:05:29;10.68;;;5.53;;
45039;SDS011;30778;53.574;7.770;2023-07-24T03:07:58;9.35;;;4.47;;
45039;SDS011;30778;53.574;7.770;2023-07-24T03:10:23;9.00;;;4.93;;
45039;SDS011;30778;53.574;7.770;2023-07-24T03:12:49;10.20;;;5.68;;
45039;SDS011;30778;53.574;7.770;2023-07-24T03:15:14;6.93;;;4.35;;
45039;SDS011;30778;53.574;7.770;2023-07-24T03:17:40;9.98;;;5.32;;
45039;SDS011;30778;53.574;7.770;2023-07-24T03:20:09;13.32;;;5.35;;
45039;SDS011;30778;53.574;7.770;2023-07-24T03:22:44;8.55;;;5.15;;
45039;SDS011;30778;53.574;7.770;2023-07-24T03:25:10;9.43;;;5.32;;
45039;SDS011;30778;53.574;7.770;2023-07-24T03:27:36;11.93;;;5.60;;
45039;SDS011;30778;53.574;7.770;2023-07-24T03:30:01;12.45;;;6.15;;
45039;SDS011;30778;53.574;7.770;2023-07-24T03:32:28;10.80;;;6.65;;
45039;SDS011;30778;53.574;7.770;2023-07-24T03:34:55;14.35;;;7.15;;
45039;SDS011;30778;53.574;7.770;2023-07-24T03:37:20;12.27;;;6.57;;
45039;SDS011;30778;53.574;7.770;2023-07-24T03:39:47;10.25;;;7.43;;
45039;SDS011;30778;53.574;7.770;2023-07-24T03:42:23;14.00;;;7.43;;
45039;SDS011;30778;53.574;7.770;2023-07-24T03:44:53;13.18;;;7.65;;
45039;SDS011;30778;53.574;7.770;2023-07-24T03:47:22;15.02;;;7.80;;
45039;SDS011;30778;53.574;7.770;2023-07-24T03:49:48;12.38;;;7.80;;
45039;SDS011;30778;53.574;7.770;2023-07-24T03:52:14;12.90;;;7.03;;
45039;SDS011;30778;53.574;7.770;2023-07-24T03:54:42;15.32;;;7.75;;
45039;SDS011;30778;53.574;7.770;2023-07-24T03:57:11;10.93;;;7.78;;
45039;SDS011;30778;53.574;7.770;2023-07-24T03:59:37;12.68;;;8.00;;
45039;SDS011;30778;53.574;7.770;2023-07-24T04:02:05;14.48;;;8.43;;
45039;SDS011;30778;53.574;7.770;2023-07-24T04:04:30;14.85;;;7.18;;
45039;SDS011;30778;53.574;7.770;2023-07-24T04:07:04;15.30;;;9.63;;
45039;SDS011;30778;53.574;7.770;2023-07-24T04:09:33;15.43;;;8.95;;
45039;SDS011;30778;53.574;7.770;2023-07-24T04:11:58;12.82;;;8.15;;
45039;SDS011;30778;53.574;7.770;2023-07-24T04:14:24;11.43;;;7.90;;
45039;SDS011;30778;53.574;7.770;2023-07-24T04:16:49;15.52;;;8.70;;
45039;SDS011;30778;53.574;7.770;2023-07-24T04:19:17;12.75;;;8.45;;
45039;SDS011;30778;53.574;7.770;2023-07-24T04:21:42;12.75;;;8.38;;
45039;SDS011;30778;53.574;7.770;2023-07-24T04:24:08;11.70;;;8.10;;
45039;SDS011;30778;53.574;7.770;2023-07-24T04:26:36;13.38;;;8.45;;
45039;SDS011;30778;53.574;7.770;2023-07-24T04:29:02;14.68;;;9.50;;
45039;SDS011;30778;53.574;7.770;2023-07-24T04:31:27;12.57;;;8.85;;
45039;SDS011;30778;53.574;7.770;2023-07-24T04:33:53;17.52;;;8.85;;
45039;SDS011;30778;53.574;7.770;2023-07-24T04:36:18;11.48;;;8.50;;
45039;SDS011;30778;53.574;7.770;2023-07-24T04:38:43;11.18;;;8.75;;
45039;SDS011;30778;53.574;7.770;2023-07-24T04:41:11;13.38;;;7.22;;
45039;SDS011;30778;53.574;7.770;2023-07-24T04:43:36;13.50;;;7.53;;
45039;SDS011;30778;53.574;7.770;2023-07-24T04:46:02;11.52;;;7.75;;
45039;SDS011;30778;53.574;7.770;2023-07-24T04:48:28;9.85;;;7.22;;
45039;SDS011;30778;53.574;7.770;2023-07-24T04:50:54;9.75;;;7.03;;
45039;SDS011;30778;53.574;7.770;2023-07-24T04:53:22;14.38;;;7.53;;
45039;SDS011;30778;53.574;7.770;2023-07-24T04:55:48;12.23;;;8.25;;
45039;SDS011;30778;53.574;7.770;2023-07-24T04:58:13;9.88;;;7.40;;
45039;SDS011;30778;53.574;7.770;2023-07-24T05:00:39;15.50;;;7.18;;
45039;SDS011;30778;53.574;7.770;2023-07-24T05:03:05;9.82;;;6.53;;
45039;SDS011;30778;53.574;7.770;2023-07-24T05:05:33;12.82;;;6.30;;
45039;SDS011;30778;53.574;7.770;2023-07-24T05:07:58;8.90;;;6.68;;
45039;SDS011;30778;53.574;7.770;2023-07-24T05:10:24;10.27;;;7.07;;
45039;SDS011;30778;53.574;7.770;2023-07-24T05:12:50;7.78;;;5.78;;
45039;SDS011;30778;53.574;7.770;2023-07-24T05:15:15;10.48;;;6.85;;
45039;SDS011;30778;53.574;7.770;2023-07-24T05:17:42;10.45;;;6.13;;
45039;SDS011;30778;53.574;7.770;2023-07-24T05:20:09;10.82;;;7.32;;
45039;SDS011;30778;53.574;7.770;2023-07-24T05:22:34;10.82;;;6.72;;
45039;SDS011;30778;53.574;7.770;2023-07-24T05:25:00;10.13;;;6.47;;
45039;SDS011;30778;53.574;7.770;2023-07-24T05:27:26;10.07;;;6.82;;
45039;SDS011;30778;53.574;7.770;2023-07-24T05:29:51;12.70;;;7.38;;
45039;SDS011;30778;53.574;7.770;2023-07-24T05:32:17;9.25;;;6.57;;
45039;SDS011;30778;53.574;7.770;2023-07-24T05:34:45;10.68;;;7.10;;
45039;SDS011;30778;53.574;7.770;2023-07-24T05:37:11;10.52;;;7.18;;
45039;SDS011;30778;53.574;7.770;2023-07-24T05:39:42;11.73;;;7.32;;
45039;SDS011;30778;53.574;7.770;2023-07-24T05:42:10;11.90;;;5.90;;
45039;SDS011;30778;53.574;7.770;2023-07-24T05:44:35;15.68;;;6.88;;
45039;SDS011;30778;53.574;7.770;2023-07-24T05:47:02;12.90;;;6.97;;
45039;SDS011;30778;53.574;7.770;2023-07-24T05:49:28;10.90;;;6.13;;
45039;SDS011;30778;53.574;7.770;2023-07-24T05:51:56;10.68;;;6.88;;
45039;SDS011;30778;53.574;7.770;2023-07-24T05:54:22;13.95;;;6.38;;
45039;SDS011;30778;53.574;7.770;2023-07-24T05:56:48;8.82;;;6.70;;
45039;SDS011;30778;53.574;7.770;2023-07-24T05:59:14;13.63;;;6.80;;
45039;SDS011;30778;53.574;7.770;2023-07-24T06:01:40;9.55;;;6.10;;
45039;SDS011;30778;53.574;7.770;2023-07-24T06:04:05;13.45;;;6.65;;
45039;SDS011;30778;53.574;7.770;2023-07-24T06:06:32;9.13;;;5.75;;
45039;SDS011;30778;53.574;7.770;2023-07-24T06:08:58;10.25;;;6.55;;
45039;SDS011;30778;53.574;7.770;2023-07-24T06:11:24;13.05;;;5.78;;
45039;SDS011;30778;53.574;7.770;2023-07-24T06:13:51;16.27;;;6.72;;
45039;SDS011;30778;53.574;7.770;2023-07-24T06:16:18;9.52;;;6.28;;
45039;SDS011;30778;53.574;7.770;2023-07-24T06:18:43;7.68;;;5.45;;
45039;SDS011;30778;53.574;7.770;2023-07-24T06:21:09;7.50;;;5.82;;
45039;SDS011;30778;53.574;7.770;2023-07-24T06:23:37;11.57;;;5.97;;
45039;SDS011;30778;53.574;7.770;2023-07-24T06:26:03;6.53;;;5.30;;
45039;SDS011;30778;53.574;7.770;2023-07-24T06:28:29;10.88;;;6.28;;
45039;SDS011;30778;53.574;7.770;2023-07-24T06:30:57;10.20;;;5.85;;
45039;SDS011;30778;53.574;7.770;2023-07-24T06:33:23;11.30;;;6.57;;
45039;SDS011;30778;53.574;7.770;2023-07-24T06:35:49;9.75;;;5.85;;
45039;SDS011;30778;53.574;7.770;2023-07-24T06:38:16;10.00;;;7.28;;
45039;SDS011;30778;53.574;7.770;2023-07-24T06:40:41;12.77;;;6.03;;
45039;SDS011;30778;53.574;7.770;2023-07-24T06:43:07;8.50;;;6.40;;
45039;SDS011;30778;53.574;7.770;2023-07-24T06:45:33;9.00;;;5.95;;
45039;SDS011;30778;53.574;7.770;2023-07-24T06:47:59;14.38;;;7.45;;
45039;SDS011;30778;53.574;7.770;2023-07-24T06:50:25;8.18;;;5.60;;
45039;SDS011;30778;53.574;7.770;2023-07-24T06:52:50;7.10;;;5.47;;
45039;SDS011;30778;53.574;7.770;2023-07-24T06:55:17;10.27;;;6.72;;
45039;SDS011;30778;53.574;7.770;2023-07-24T06:57:42;10.60;;;5.95;;
45039;SDS011;30778;53.574;7.770;2023-07-24T07:00:08;7.53;;;5.40;;
45039;SDS011;30778;53.574;7.770;2023-07-24T07:02:37;8.13;;;5.22;;
45039;SDS011;30778;53.574;7.770;2023-07-24T07:05:03;9.05;;;6.03;;
45039;SDS011;30778;53.574;7.770;2023-07-24T07:07:29;7.22;;;5.57;;
45039;SDS011;30778;53.574;7.770;2023-07-24T07:09:54;7.78;;;5.45;;
45039;SDS011;30778;53.574;7.770;2023-07-24T07:12:20;6.35;;;4.80;;
45039;SDS011;30778;53.574;7.770;2023-07-24T07:14:45;7.45;;;5.63;;
45039;SDS011;30778;53.574;7.770;2023-07-24T07:17:14;8.15;;;5.47;;
45039;SDS011;30778;53.574;7.770;2023-07-24T07:19:40;8.57;;;5.72;;
45039;SDS011;30778;53.574;7.770;2023-07-24T07:25:08;8.35;;;5.55;;
45039;SDS011;30778;53.574;7.770;2023-07-24T07:27:33;11.45;;;5.65;;
45039;SDS011;30778;53.574;7.770;2023-07-24T07:29:59;7.63;;;4.97;;
45039;SDS011;30778;53.574;7.770;2023-07-24T07:32:25;11.55;;;5.50;;
45039;SDS011;30778;53.574;7.770;2023-07-24T07:34:51;9.05;;;5.50;;
45039;SDS011;30778;53.574;7.770;2023-07-24T07:37:16;8.90;;;6.13;;
45039;SDS011;30778;53.574;7.770;2023-07-24T07:39:42;7.95;;;4.80;;
45039;SDS011;30778;53.574;7.770;2023-07-24T07:42:07;7.68;;;4.10;;
45039;SDS011;30778;53.574;7.770;2023-07-24T07:44:33;5.20;;;4.07;;
45039;SDS011;30778;53.574;7.770;2023-07-24T07:46:58;7.20;;;5.25;;
45039;SDS011;30778;53.574;7.770;2023-07-24T07:49:24;7.18;;;5.10;;
45039;SDS011;30778;53.574;7.770;2023-07-24T07:51:51;10.63;;;4.22;;
45039;SDS011;30778;53.574;7.770;2023-07-24T07:54:17;9.75;;;5.05;;
45039;SDS011;30778;53.574;7.770;2023-07-24T07:56:42;9.10;;;4.18;;
45039;SDS011;30778;53.574;7.770;2023-07-24T07:59:08;5.22;;;3.95;;
45039;SDS011;30778;53.574;7.770;2023-07-24T08:01:35;12.50;;;4.63;;
45039;SDS011;30778;53.574;7.770;2023-07-24T08:04:02;7.00;;;3.58;;
45039;SDS011;30778;53.574;7.770;2023-07-24T08:06:27;4.97;;;3.38;;
45039;SDS011;30778;53.574;7.770;2023-07-24T08:08:53;5.72;;;4.25;;
45039;SDS011;30778;53.574;7.770;2023-07-24T08:11:18;6.72;;;4.03;;
45039;SDS011;30778;53.574;7.770;2023-07-24T08:13:44;6.07;;;3.65;;
45039;SDS011;30778;53.574;7.770;2023-07-24T08:16:13;5.18;;;3.35;;
45039;SDS011;30778;53.574;7.770;2023-07-24T08:18:46;4.20;;;3.08;;
45039;SDS011;30778;53.574;7.770;2023-07-24T08:21:13;5.72;;;3.80;;
45039;SDS011;30778;53.574;7.770;2023-07-24T08:23:39;6.47;;;3.47;;
45039;SDS011;30778;53.574;7.770;2023-07-24T08:26:05;4.85;;;3.47;;
45039;SDS011;30778;53.574;7.770;2023-07-24T08:28:34;7.85;;;3.95;;
45039;SDS011;30778;53.574;7.770;2023-07-24T08:31:00;8.77;;;3.63;;
45039;SDS011;30778;53.574;7.770;2023-07-24T08:33:29;5.93;;;3.67;;
45039;SDS011;30778;53.574;7.770;2023-07-24T08:35:58;7.53;;;3.90;;
45039;SDS011;30778;53.574;7.770;2023-07-24T08:38:25;4.05;;;2.85;;
45039;SDS011;30778;53.574;7.770;2023-07-24T08:41:01;8.23;;;3.17;;
45039;SDS011;30778;53.574;7.770;2023-07-24T08:43:34;4.53;;;3.53;;
45039;SDS011;30778;53.574;7.770;2023-07-24T08:46:01;4.60;;;3.20;;
45039;SDS011;30778;53.574;7.770;2023-07-24T08:48:30;3.42;;;2.58;;
45039;SDS011;30778;53.574;7.770;2023-07-24T08:51:01;11.02;;;3.13;;
45039;SDS011;30778;53.574;7.770;2023-07-24T08:53:28;4.65;;;2.92;;
45039;SDS011;30778;53.574;7.770;2023-07-24T08:55:56;8.18;;;3.05;;
45039;SDS011;30778;53.574;7.770;2023-07-24T08:58:22;7.43;;;3.25;;
45039;SDS011;30778;53.574;7.770;2023-07-24T09:00:48;4.50;;;3.35;;
45039;SDS011;30778;53.574;7.770;2023-07-24T09:03:17;8.00;;;3.47;;
45039;SDS011;30778;53.574;7.770;2023-07-24T09:05:44;5.47;;;3.35;;
45039;SDS011;30778;53.574;7.770;2023-07-24T09:08:10;6.88;;;3.28;;
45039;SDS011;30778;53.574;7.770;2023-07-24T09:10:35;5.93;;;3.60;;
45039;SDS011;30778;53.574;7.770;2023-07-24T09:13:01;5.05;;;3.53;;
45039;SDS011;30778;53.574;7.770;2023-07-24T09:15:29;4.28;;;3.15;;
45039;SDS011;30778;53.574;7.770;2023-07-24T09:18:15;5.90;;;3.92;;
45039;SDS011;30778;53.574;7.770;2023-07-24T09:20:42;8.20;;;3.42;;
45039;SDS011;30778;53.574;7.770;2023-07-24T09:23:09;5.35;;;2.78;;
45039;SDS011;30778;53.574;7.770;2023-07-24T09:25:36;7.07;;;2.95;;
45039;SDS011;30778;53.574;7.770;2023-07-24T09:28:12;5.85;;;3.22;;
45039;SDS011;30778;53.574;7.770;2023-07-24T09:30:39;8.75;;;3.03;;
45039;SDS011;30778;53.574;7.770;2023-07-24T09:33:06;4.60;;;3.15;;
45039;SDS011;30778;53.574;7.770;2023-07-24T09:35:32;9.20;;;2.67;;
45039;SDS011;30778;53.574;7.770;2023-07-24T09:38:07;5.38;;;2.58;;
45039;SDS011;30778;53.574;7.770;2023-07-24T09:40:38;5.90;;;3.47;;
45039;SDS011;30778;53.574;7.770;2023-07-24T09:43:26;10.38;;;2.72;;
45039;SDS011;30778;53.574;7.770;2023-07-24T09:45:53;3.45;;;2.72;;
45039;SDS011;30778;53.574;7.770;2023-07-24T09:48:22;5.78;;;3.15;;
45039;SDS011;30778;53.574;7.770;2023-07-24T09:50:56;7.15;;;3.47;;
45039;SDS011;30778;53.574;7.770;2023-07-24T09:55:59;7.38;;;3.22;;
45039;SDS011;30778;53.574;7.770;2023-07-24T09:58:26;7.50;;;4.03;;
45039;SDS011;30778;53.574;7.770;2023-07-24T10:00:53;9.52;;;3.05;;
45039;SDS011;30778;53.574;7.770;2023-07-24T10:03:19;6.45;;;3.67;;
45039;SDS011;30778;53.574;7.770;2023-07-24T10:05:47;6.97;;;3.63;;
45039;SDS011;30778;53.574;7.770;2023-07-24T10:08:17;4.55;;;2.63;;
45039;SDS011;30778;53.574;7.770;2023-07-24T10:10:44;3.42;;;2.72;;
45039;SDS011;30778;53.574;7.770;2023-07-24T10:13:12;8.18;;;4.18;;
45039;SDS011;30778;53.574;7.770;2023-07-24T10:15:43;7.00;;;3.45;;
45039;SDS011;30778;53.574;7.770;2023-07-24T10:18:10;6.88;;;3.53;;
45039;SDS011;30778;53.574;7.770;2023-07-24T10:20:37;8.05;;;4.22;;
45039;SDS011;30778;53.574;7.770;2023-07-24T10:23:04;7.10;;;3.67;;
45039;SDS011;30778;53.574;7.770;2023-07-24T10:25:31;6.25;;;3.40;;
45039;SDS011;30778;53.574;7.770;2023-07-24T10:28:01;4.85;;;2.55;;
45039;SDS011;30778;53.574;7.770;2023-07-24T10:30:37;8.75;;;3.55;;
45039;SDS011;30778;53.574;7.770;2023-07-24T10:38:16;5.67;;;3.10;;
45039;SDS011;30778;53.574;7.770;2023-07-24T10:40:44;6.93;;;3.67;;
45039;SDS011;30778;53.574;7.770;2023-07-24T10:43:12;5.03;;;3.42;;
45039;SDS011;30778;53.574;7.770;2023-07-24T10:48:06;7.00;;;3.35;;
45039;SDS011;30778;53.574;7.770;2023-07-24T10:50:42;6.53;;;3.83;;
45039;SDS011;30778;53.574;7.770;2023-07-24T10:53:09;8.10;;;3.10;;
45039;SDS011;30778;53.574;7.770;2023-07-24T10:55:35;8.23;;;3.03;;
45039;SDS011;30778;53.574;7.770;2023-07-24T10:58:01;4.72;;;2.83;;
45039;SDS011;30778;53.574;7.770;2023-07-24T11:00:26;4.50;;;3.33;;
45039;SDS011;30778;53.574;7.770;2023-07-24T11:02:53;5.88;;;2.78;;
45039;SDS011;30778;53.574;7.770;2023-07-24T11:05:20;3.92;;;2.45;;
45039;SDS011;30778;53.574;7.770;2023-07-24T11:07:47;3.88;;;2.30;;
45039;SDS011;30778;53.574;7.770;2023-07-24T11:10:17;4.32;;;2.60;;
45039;SDS011;30778;53.574;7.770;2023-07-24T11:12:46;6.20;;;2.17;;
45039;SDS011;30778;53.574;7.770;2023-07-24T11:15:12;6.35;;;2.28;;
45039;SDS011;30778;53.574;7.770;2023-07-24T11:17:39;4.75;;;2.58;;
45039;SDS011;30778;53.574;7.770;2023-07-24T11:20:14;4.82;;;1.90;;
45039;SDS011;30778;53.574;7.770;2023-07-24T11:22:41;5.07;;;2.72;;
45039;SDS011;30778;53.574;7.770;2023-07-24T11:25:08;7.35;;;2.70;;
45039;SDS011;30778;53.574;7.770;2023-07-24T11:27:41;3.47;;;2.35;;
45039;SDS011;30778;53.574;7.770;2023-07-24T11:30:09;5.88;;;2.70;;
45039;SDS011;30778;53.574;7.770;2023-07-24T11:32:37;3.30;;;2.50;;
45039;SDS011;30778;53.574;7.770;2023-07-24T11:35:04;3.80;;;2.00;;
45039;SDS011;30778;53.574;7.770;2023-07-24T11:37:30;5.55;;;3.00;;
45039;SDS011;30778;53.574;7.770;2023-07-24T11:40:02;8.23;;;2.85;;
45039;SDS011;30778;53.574;7.770;2023-07-24T11:42:39;4.00;;;2.88;;
45039;SDS011;30778;53.574;7.770;2023-07-24T11:45:06;7.05;;;2.20;;
45039;SDS011;30778;53.574;7.770;2023-07-24T11:47:40;7.68;;;2.88;;
45039;SDS011;30778;53.574;7.770;2023-07-24T11:50:12;5.45;;;3.28;;
45039;SDS011;30778;53.574;7.770;2023-07-24T11:55:08;4.85;;;1.50;;
45039;SDS011;30778;53.574;7.770;2023-07-24T11:57:34;2.65;;;1.02;;
45039;SDS011;30778;53.574;7.770;2023-07-24T12:00:00;2.95;;;0.82;;
45039;SDS011;30778;53.574;7.770;2023-07-24T12:02:26;1.83;;;0.70;;
45039;SDS011;30778;53.574;7.770;2023-07-24T12:04:55;2.47;;;0.70;;
45039;SDS011;30778;53.574;7.770;2023-07-24T12:07:32;2.45;;;0.40;;
45039;SDS011;30778;53.574;7.770;2023-07-24T12:09:59;1.05;;;0.22;;
45039;SDS011;30778;53.574;7.770;2023-07-24T12:12:38;0.98;;;0.38;;
45039;SDS011;30778;53.574;7.770;2023-07-24T12:15:13;0.80;;;0.20;;
45039;SDS011;30778;53.574;7.770;2023-07-24T12:17:44;1.08;;;0.30;;
45039;SDS011;30778;53.574;7.770;2023-07-24T12:20:09;0.75;;;0.47;;
45039;SDS011;30778;53.574;7.770;2023-07-24T12:22:36;1.00;;;0.30;;
45039;SDS011;30778;53.574;7.770;2023-07-24T12:25:02;0.82;;;0.40;;
45039;SDS011;30778;53.574;7.770;2023-07-24T12:27:28;1.17;;;0.40;;
45039;SDS011;30778;53.574;7.770;2023-07-24T12:29:54;2.65;;;0.40;;
45039;SDS011;30778;53.574;7.770;2023-07-24T12:32:22;2.67;;;0.40;;
45039;SDS011;30778;53.574;7.770;2023-07-24T12:34:48;15.88;;;3.47;;
45039;SDS011;30778;53.574;7.770;2023-07-24T12:37:15;4.75;;;1.50;;
45039;SDS011;30778;53.574;7.770;2023-07-24T12:39:43;2.50;;;0.77;;
45039;SDS011;30778;53.574;7.770;2023-07-24T12:42:10;2.67;;;0.80;;
45039;SDS011;30778;53.574;7.770;2023-07-24T12:44:38;7.47;;;1.90;;
45039;SDS011;30778;53.574;7.770;2023-07-24T12:47:04;6.13;;;0.88;;
45039;SDS011;30778;53.574;7.770;2023-07-24T12:49:32;1.38;;;0.55;;
45039;SDS011;30778;53.574;7.770;2023-07-24T12:51:58;1.42;;;0.47;;
45039;SDS011;30778;53.574;7.770;2023-07-24T12:54:23;2.70;;;0.88;;
45039;SDS011;30778;53.574;7.770;2023-07-24T12:56:49;4.03;;;0.57;;
45039;SDS011;30778;53.574;7.770;2023-07-24T12:59:16;2.28;;;0.40;;
45039;SDS011;30778;53.574;7.770;2023-07-24T13:01:42;4.50;;;0.73;;
45039;SDS011;30778;53.574;7.770;2023-07-24T13:04:08;2.25;;;1.27;;
45039;SDS011;30778;53.574;7.770;2023-07-24T13:06:34;2.22;;;1.23;;
45039;SDS011;30778;53.574;7.770;2023-07-24T13:08:59;10.20;;;2.17;;
45039;SDS011;30778;53.574;7.770;2023-07-24T13:11:25;8.65;;;2.42;;
45039;SDS011;30778;53.574;7.770;2023-07-24T13:13:53;2.55;;;1.45;;
45039;SDS011;30778;53.574;7.770;2023-07-24T13:16:21;1.95;;;1.70;;
45039;SDS011;30778;53.574;7.770;2023-07-24T13:18:47;2.55;;;1.38;;
45039;SDS011;30778;53.574;7.770;2023-07-24T13:21:13;5.45;;;1.77;;
45039;SDS011;30778;53.574;7.770;2023-07-24T13:23:39;2.58;;;1.98;;
45039;SDS011;30778;53.574;7.770;2023-07-24T13:26:05;2.05;;;1.58;;
45039;SDS011;30778;53.574;7.770;2023-07-24T13:28:33;2.70;;;1.80;;
45039;SDS011;30778;53.574;7.770;2023-07-24T13:30:58;7.10;;;1.70;;
45039;SDS011;30778;53.574;7.770;2023-07-24T13:33:24;4.30;;;1.70;;
45039;SDS011;30778;53.574;7.770;2023-07-24T13:35:49;4.53;;;1.38;;
45039;SDS011;30778;53.574;7.770;2023-07-24T13:38:16;2.72;;;1.48;;
45039;SDS011;30778;53.574;7.770;2023-07-24T13:40:41;3.38;;;1.55;;
45039;SDS011;30778;53.574;7.770;2023-07-24T13:43:09;5.18;;;1.80;;
45039;SDS011;30778;53.574;7.770;2023-07-24T13:45:35;3.22;;;1.65;;
45039;SDS011;30778;53.574;7.770;2023-07-24T13:48:00;2.60;;;1.85;;
45039;SDS011;30778;53.574;7.770;2023-07-24T13:50:27;3.83;;;1.70;;
45039;SDS011;30778;53.574;7.770;2023-07-24T13:52:52;2.83;;;1.13;;
45039;SDS011;30778;53.574;7.770;2023-07-24T13:55:18;2.08;;;1.10;;
45039;SDS011;30778;53.574;7.770;2023-07-24T13:57:43;2.33;;;1.15;;
45039;SDS011;30778;53.574;7.770;2023-07-24T14:00:11;3.38;;;1.58;;
45039;SDS011;30778;53.574;7.770;2023-07-24T14:02:37;6.72;;;1.05;;
45039;SDS011;30778;53.574;7.770;2023-07-24T14:05:03;2.60;;;1.30;;
45039;SDS011;30778;53.574;7.770;2023-07-24T14:07:28;2.80;;;0.90;;
45039;SDS011;30778;53.574;7.770;2023-07-24T14:09:54;2.63;;;1.70;;
45039;SDS011;30778;53.574;7.770;2023-07-24T14:12:19;5.40;;;2.03;;
45039;SDS011;30778;53.574;7.770;2023-07-24T14:14:45;7.40;;;4.05;;
45039;SDS011;30778;53.574;7.770;2023-07-24T14:17:10;1.50;;;1.00;;
45039;SDS011;30778;53.574;7.770;2023-07-24T14:19:36;4.63;;;2.28;;
45039;SDS011;30778;53.574;7.770;2023-07-24T14:22:01;3.38;;;1.73;;
45039;SDS011;30778;53.574;7.770;2023-07-24T14:24:27;3.88;;;1.88;;
45039;SDS011;30778;53.574;7.770;2023-07-24T14:26:53;4.85;;;1.90;;
45039;SDS011;30778;53.574;7.770;2023-07-24T14:29:18;2.83;;;1.63;;
45039;SDS011;30778;53.574;7.770;2023-07-24T14:31:44;6.57;;;1.67;;
45039;SDS011;30778;53.574;7.770;2023-07-24T14:34:10;3.92;;;1.85;;
45039;SDS011;30778;53.574;7.770;2023-07-24T14:36:37;8.35;;;1.77;;
45039;SDS011;30778;53.574;7.770;2023-07-24T14:39:03;3.28;;;2.35;;
45039;SDS011;30778;53.574;7.770;2023-07-24T14:41:29;3.63;;;1.83;;
45039;SDS011;30778;53.574;7.770;2023-07-24T14:43:54;2.88;;;1.58;;
45039;SDS011;30778;53.574;7.770;2023-07-24T14:46:20;2.65;;;2.20;;
45039;SDS011;30778;53.574;7.770;2023-07-24T14:48:45;3.42;;;2.22;;
45039;SDS011;30778;53.574;7.770;2023-07-24T14:51:15;2.83;;;2.25;;
45039;SDS011;30778;53.574;7.770;2023-07-24T14:53:41;4.72;;;1.95;;
45039;SDS011;30778;53.574;7.770;2023-07-24T14:56:07;4.30;;;2.30;;
45039;SDS011;30778;53.574;7.770;2023-07-24T14:58:32;4.78;;;2.60;;
45039;SDS011;30778;53.574;7.770;2023-07-24T15:00:59;3.13;;;2.40;;
45039;SDS011;30778;53.574;7.770;2023-07-24T15:03:24;6.10;;;2.58;;
45039;SDS011;30778;53.574;7.770;2023-07-24T15:05:51;5.15;;;2.35;;
45039;SDS011;30778;53.574;7.770;2023-07-24T15:08:17;5.47;;;2.20;;
45039;SDS011;30778;53.574;7.770;2023-07-24T15:10:45;2.97;;;2.05;;
45039;SDS011;30778;53.574;7.770;2023-07-24T15:13:10;4.68;;;1.80;;
45039;SDS011;30778;53.574;7.770;2023-07-24T15:15:38;3.40;;;1.63;;
45039;SDS011;30778;53.574;7.770;2023-07-24T15:18:03;3.53;;;1.23;;
45039;SDS011;30778;53.574;7.770;2023-07-24T15:20:29;4.07;;;1.30;;
45039;SDS011;30778;53.574;7.770;2023-07-24T15:22:54;2.08;;;1.35;;
45039;SDS011;30778;53.574;7.770;2023-07-24T15:25:20;5.47;;;1.60;;
45039;SDS011;30778;53.574;7.770;2023-07-24T15:27:46;4.25;;;1.35;;
45039;SDS011;30778;53.574;7.770;2023-07-24T15:30:11;5.10;;;1.83;;
45039;SDS011;30778;53.574;7.770;2023-07-24T15:32:37;4.65;;;1.98;;
45039;SDS011;30778;53.574;7.770;2023-07-24T15:35:03;3.03;;;1.50;;
45039;SDS011;30778;53.574;7.770;2023-07-24T15:37:29;6.20;;;1.88;;